Terminal Aerodrome Forecast
Issued by NWS

Home | Current Version | Previous Version | Text Only | Print | Product List | Glossary On
Versions: 1 2 3 4 5 6 7 8 9 10 11 12 13 14 15 16 17 18 19 20 21 22 23 24 25 26 27 28 29 30 31 32 33
000
FTUS42 KJAX 271227 AAA
TAFCRG
TAF AMD
KCRG 271227Z 2712/2812 30007KT P6SM SCT025 BKN200
      TEMPO 2712/2715 BKN025
     FM271500 03010KT P6SM SCT015 BKN200
     FM280000 05007KT P6SM SCT040 BKN120 OVC200
     FM280600 05004KT P6SM VCSH BKN040 OVC120=

USA.gov is the U.S. government's official web portal to all federal, state and local government web resources and services.